createdAt,value
2019-03-10T00:01:10.503Z,3.10
2019-03-10T00:03:38.055Z,3.55
2019-03-10T00:06:05.479Z,3.50
2019-03-10T00:08:32.857Z,2.60
2019-03-10T00:11:00.543Z,3.22
2019-03-10T00:13:28.141Z,2.52
2019-03-10T00:15:55.950Z,4.30
2019-03-10T00:18:23.303Z,3.60
2019-03-10T00:20:50.894Z,2.95
2019-03-10T00:23:18.442Z,2.77
2019-03-10T00:25:46.062Z,3.10
2019-03-10T00:28:13.727Z,2.87
2019-03-10T00:30:41.043Z,3.17
2019-03-10T00:33:08.487Z,3.83
2019-03-10T00:35:35.816Z,2.90
2019-03-10T00:38:03.366Z,3.90
2019-03-10T00:41:12.430Z,3.10
2019-03-10T00:44:17.454Z,3.12
2019-03-10T00:47:35.720Z,3.52
2019-03-10T00:50:53.062Z,2.67
2019-03-10T00:53:20.752Z,2.65
2019-03-10T00:55:48.190Z,4.33
2019-03-10T00:58:15.650Z,2.95
2019-03-10T01:00:43.666Z,3.12
2019-03-10T01:03:11.467Z,3.72
2019-03-10T01:05:38.770Z,3.58
2019-03-10T01:08:06.730Z,3.17
2019-03-10T01:10:34.541Z,2.60
2019-03-10T01:13:01.970Z,2.85
2019-03-10T01:15:30.062Z,3.05
2019-03-10T01:17:58.181Z,2.85
2019-03-10T01:20:26.080Z,2.60
2019-03-10T01:22:53.462Z,3.00
2019-03-10T01:25:20.802Z,2.90
2019-03-10T01:27:48.510Z,4.12
2019-03-10T01:30:17.997Z,2.55
2019-03-10T01:33:39.098Z,2.80
2019-03-10T01:36:13.552Z,3.58
2019-03-10T01:38:41.159Z,3.55
2019-03-10T01:41:08.586Z,2.40
2019-03-10T01:43:36.043Z,2.92
2019-03-10T01:46:03.484Z,2.00
2019-03-10T01:48:31.187Z,2.87
2019-03-10T01:50:58.531Z,2.25
2019-03-10T01:53:26.108Z,2.65
2019-03-10T01:55:53.538Z,3.22
2019-03-10T01:58:21.318Z,2.87
2019-03-10T02:00:48.887Z,2.77
2019-03-10T02:03:16.232Z,2.42
2019-03-10T02:05:43.621Z,2.50
2019-03-10T02:08:11.329Z,2.60
2019-03-10T02:10:38.946Z,2.42
2019-03-10T02:13:06.325Z,2.27
2019-03-10T02:15:34.104Z,2.45
2019-03-10T02:18:01.550Z,2.50
2019-03-10T02:20:29.171Z,2.12
2019-03-10T02:22:56.746Z,2.42
2019-03-10T02:25:24.180Z,2.37
2019-03-10T02:27:51.662Z,2.75
2019-03-10T02:30:19.304Z,2.72
2019-03-10T02:32:47.045Z,2.58
2019-03-10T02:35:14.746Z,3.25
2019-03-10T02:37:42.481Z,2.72
2019-03-10T02:40:10.363Z,2.70
2019-03-10T02:42:37.847Z,2.70
2019-03-10T02:45:05.630Z,3.10
2019-03-10T02:47:33.141Z,2.60
2019-03-10T02:50:00.581Z,2.27
2019-03-10T02:52:28.349Z,2.72
2019-03-10T02:54:55.783Z,2.10
2019-03-10T02:57:23.315Z,2.62
2019-03-10T02:59:50.817Z,2.20
2019-03-10T03:02:18.184Z,2.15
2019-03-10T03:04:45.655Z,1.90
2019-03-10T03:07:13.349Z,2.80
2019-03-10T03:09:41.083Z,1.52
2019-03-10T03:12:08.557Z,1.92
2019-03-10T03:14:35.974Z,1.98
2019-03-10T03:17:03.561Z,1.90
2019-03-10T03:19:31.296Z,2.33
2019-03-10T03:21:58.691Z,4.05
2019-03-10T03:24:26.468Z,2.20
2019-03-10T03:26:54.231Z,2.85
2019-03-10T03:29:21.721Z,2.52
2019-03-10T03:31:49.150Z,2.15
2019-03-10T03:34:16.633Z,2.50
2019-03-10T03:36:44.019Z,2.05
2019-03-10T03:39:32.673Z,2.58
2019-03-10T03:42:00.196Z,2.40
2019-03-10T03:44:27.550Z,2.72
2019-03-10T03:46:54.891Z,2.25
2019-03-10T03:49:22.519Z,2.17
2019-03-10T03:51:50.275Z,2.80
2019-03-10T03:54:17.675Z,2.25
2019-03-10T03:56:45.178Z,2.42
2019-03-10T03:59:12.537Z,2.25
2019-03-10T04:01:43.949Z,2.17
2019-03-10T04:04:11.563Z,2.77
2019-03-10T04:06:39.446Z,2.80
2019-03-10T04:09:07.775Z,2.72
2019-03-10T04:11:35.214Z,2.60
2019-03-10T04:14:02.709Z,2.47
2019-03-10T04:16:30.080Z,2.60
2019-03-10T04:18:57.636Z,3.35
2019-03-10T04:21:25.060Z,2.55
2019-03-10T04:23:52.855Z,2.50
2019-03-10T04:26:20.242Z,2.77
2019-03-10T04:28:47.579Z,2.67
2019-03-10T04:31:15.054Z,2.75
2019-03-10T04:33:42.438Z,2.33
2019-03-10T04:36:09.887Z,2.30
2019-03-10T04:38:37.761Z,1.80
2019-03-10T04:41:05.179Z,2.70
2019-03-10T04:43:38.094Z,1.90
2019-03-10T04:46:05.753Z,1.77
2019-03-10T04:48:33.182Z,2.00
2019-03-10T04:51:00.510Z,1.65
2019-03-10T04:53:28.070Z,1.20
2019-03-10T04:56:06.475Z,1.67
2019-03-10T04:58:36.268Z,0.90
2019-03-10T05:01:03.927Z,1.00
2019-03-10T05:03:31.649Z,1.00
2019-03-10T05:05:59.084Z,0.70
2019-03-10T05:08:26.454Z,1.02
2019-03-10T05:10:54.029Z,0.60
2019-03-10T05:13:21.524Z,0.60
2019-03-10T05:15:48.891Z,0.50
2019-03-10T05:18:16.347Z,0.98
2019-03-10T05:20:43.940Z,0.88
2019-03-10T05:23:30.782Z,0.70
2019-03-10T05:25:58.389Z,0.70
2019-03-10T05:28:26.306Z,0.55
2019-03-10T05:30:54.120Z,0.55
2019-03-10T05:33:21.466Z,0.60
2019-03-10T05:35:48.846Z,0.70
2019-03-10T05:38:16.564Z,0.40
2019-03-10T05:40:43.987Z,0.50
2019-03-10T05:43:11.706Z,0.47
2019-03-10T05:45:39.450Z,0.70
2019-03-10T05:48:06.891Z,0.45
2019-03-10T05:50:35.195Z,0.40
2019-03-10T05:53:02.929Z,0.40
2019-03-10T05:55:30.436Z,0.40
2019-03-10T05:57:57.851Z,1.05
2019-03-10T06:00:25.166Z,0.40
2019-03-10T06:02:53.060Z,0.30
2019-03-10T06:05:20.470Z,0.40
2019-03-10T06:07:47.930Z,0.33
2019-03-10T06:10:15.371Z,0.40
2019-03-10T06:12:42.983Z,0.30
2019-03-10T06:15:10.672Z,0.28
2019-03-10T06:17:38.014Z,0.30
2019-03-10T06:20:05.417Z,0.25
2019-03-10T06:22:33.088Z,0.20
2019-03-10T06:25:00.562Z,0.30
2019-03-10T06:27:28.047Z,0.33
2019-03-10T06:29:55.632Z,0.28
2019-03-10T06:32:22.990Z,0.10
2019-03-10T06:34:50.442Z,0.20
2019-03-10T06:37:17.932Z,0.30
2019-03-10T06:39:45.421Z,0.20
2019-03-10T06:42:12.745Z,0.50
2019-03-10T06:44:40.206Z,0.30
2019-03-10T06:47:07.703Z,0.20
2019-03-10T06:49:35.186Z,0.20
2019-03-10T06:52:02.643Z,0.20
2019-03-10T06:54:30.253Z,0.42
2019-03-10T06:56:57.814Z,0.30
2019-03-10T06:59:26.362Z,0.30
2019-03-10T07:01:54.024Z,0.20
2019-03-10T07:04:21.541Z,0.28
2019-03-10T07:06:48.953Z,0.20
2019-03-10T07:09:16.683Z,0.20
2019-03-10T07:11:44.090Z,0.30
2019-03-10T07:14:12.169Z,0.25
2019-03-10T07:16:39.617Z,0.30
2019-03-10T07:19:06.980Z,0.23
2019-03-10T07:21:35.336Z,0.20
2019-03-10T07:24:02.811Z,0.40
2019-03-10T07:26:30.262Z,0.40
2019-03-10T07:29:17.335Z,0.30
2019-03-10T07:32:08.864Z,0.20
2019-03-10T07:35:04.505Z,0.40
2019-03-10T07:37:43.779Z,0.30
2019-03-10T07:40:27.854Z,0.50
2019-03-10T07:43:13.183Z,0.40
2019-03-10T07:45:54.858Z,0.35
2019-03-10T07:48:48.072Z,0.30
2019-03-10T07:51:31.025Z,0.42
2019-03-10T07:54:33.700Z,0.50
2019-03-10T07:57:19.278Z,0.20
2019-03-10T08:00:09.018Z,0.33
2019-03-10T08:02:43.345Z,0.35
2019-03-10T08:05:22.642Z,0.40
2019-03-10T08:08:13.979Z,0.30
2019-03-10T08:10:53.915Z,0.20
2019-03-10T08:13:46.696Z,0.40
2019-03-10T08:16:36.370Z,0.30
2019-03-10T08:19:23.278Z,0.30
2019-03-10T08:22:09.242Z,0.40
2019-03-10T08:25:02.295Z,0.40
2019-03-10T08:28:01.814Z,0.30
2019-03-10T08:30:45.699Z,0.30
2019-03-10T08:33:26.528Z,0.40
2019-03-10T08:36:04.224Z,0.35
2019-03-10T08:39:09.450Z,0.30
2019-03-10T08:42:02.958Z,0.25
2019-03-10T08:44:39.464Z,0.20
2019-03-10T08:47:13.446Z,0.65
2019-03-10T08:49:46.950Z,0.20
2019-03-10T08:52:36.793Z,0.20
2019-03-10T08:55:10.537Z,0.30
2019-03-10T08:58:01.845Z,0.25
2019-03-10T09:00:44.873Z,0.20
2019-03-10T09:03:30.383Z,0.20
2019-03-10T09:06:29.486Z,0.33
2019-03-10T09:09:07.741Z,0.33
2019-03-10T09:11:46.348Z,0.40
2019-03-10T09:14:23.445Z,0.20
2019-03-10T09:17:13.494Z,0.30
2019-03-10T09:19:58.818Z,0.23
2019-03-10T09:22:35.394Z,0.28
2019-03-10T09:25:16.098Z,0.30
2019-03-10T09:27:52.084Z,0.30
2019-03-10T09:30:43.956Z,0.40
2019-03-10T09:33:23.960Z,0.25
2019-03-10T09:36:11.060Z,0.30
2019-03-10T09:39:01.312Z,0.33
2019-03-10T09:41:47.326Z,0.20
2019-03-10T09:44:28.948Z,0.45
2019-03-10T09:47:08.363Z,0.40
2019-03-10T09:49:59.178Z,0.50
2019-03-10T09:52:49.364Z,0.30
2019-03-10T09:55:39.516Z,0.50
2019-03-10T09:58:17.797Z,0.40
2019-03-10T10:01:10.769Z,0.45
2019-03-10T10:04:09.983Z,0.30
2019-03-10T10:07:09.238Z,0.30
2019-03-10T10:09:54.734Z,0.45
2019-03-10T10:12:45.128Z,0.42
2019-03-10T10:15:35.826Z,0.45
2019-03-10T10:18:25.886Z,0.98
2019-03-10T10:21:21.873Z,0.60
2019-03-10T10:24:15.426Z,0.45
2019-03-10T10:26:52.470Z,0.30
2019-03-10T10:29:28.207Z,0.37
2019-03-10T10:32:13.764Z,0.50
2019-03-10T10:35:00.723Z,0.60
2019-03-10T10:37:46.507Z,0.95
2019-03-10T10:40:20.665Z,1.70
2019-03-10T10:42:59.833Z,2.30
2019-03-10T10:45:34.315Z,1.42
2019-03-10T10:48:36.566Z,1.25
2019-03-10T10:51:26.725Z,1.95
2019-03-10T10:54:16.862Z,0.95
2019-03-10T10:57:13.017Z,0.70
2019-03-10T11:00:03.425Z,0.80
2019-03-10T11:02:41.420Z,0.60
2019-03-10T11:05:27.820Z,0.78
2019-03-10T11:08:13.868Z,1.32
2019-03-10T11:11:02.123Z,0.50
2019-03-10T11:13:50.990Z,0.50
2019-03-10T11:16:49.393Z,0.40
2019-03-10T11:19:35.463Z,0.50
2019-03-10T11:22:11.700Z,0.68
2019-03-10T11:24:43.763Z,0.70
2019-03-10T11:27:26.442Z,0.60
2019-03-10T11:30:19.374Z,0.45
2019-03-10T11:33:03.078Z,0.50
2019-03-10T11:35:50.433Z,0.50
2019-03-10T11:38:23.766Z,0.60
2019-03-10T11:41:00.834Z,1.15
2019-03-10T11:43:46.676Z,0.50
2019-03-10T11:46:35.183Z,0.53
2019-03-10T11:49:31.374Z,0.50
2019-03-10T11:52:10.500Z,0.50
2019-03-10T11:54:57.559Z,0.40
2019-03-10T11:57:29.840Z,0.50
2019-03-10T12:00:15.689Z,1.02
2019-03-10T12:03:01.896Z,0.50
2019-03-10T12:05:38.619Z,0.30
2019-03-10T12:08:24.821Z,0.45
2019-03-10T12:10:52.664Z,0.45
2019-03-10T12:13:20.316Z,0.50
2019-03-10T12:15:51.380Z,0.50
2019-03-10T12:18:19.408Z,1.35
2019-03-10T12:20:47.338Z,0.70
2019-03-10T12:23:15.129Z,1.05
2019-03-10T12:25:42.678Z,1.02
2019-03-10T12:28:10.602Z,0.60
2019-03-10T12:30:38.421Z,0.65
2019-03-10T12:33:06.238Z,1.42
2019-03-10T12:35:34.897Z,0.82
2019-03-10T12:38:02.521Z,0.78
2019-03-10T12:40:35.645Z,1.12
2019-03-10T12:43:03.752Z,1.20
2019-03-10T12:45:31.249Z,0.78
2019-03-10T12:47:58.671Z,0.80
2019-03-10T12:50:26.420Z,0.70
2019-03-10T12:52:54.026Z,1.22
2019-03-10T12:55:21.454Z,0.75
2019-03-10T12:57:49.233Z,0.93
2019-03-10T13:00:17.211Z,0.93
2019-03-10T13:02:45.207Z,1.00
2019-03-10T13:05:12.761Z,1.10
2019-03-10T13:07:40.349Z,1.45
2019-03-10T13:10:07.736Z,1.17
2019-03-10T13:12:35.154Z,1.10
2019-03-10T13:15:02.740Z,1.30
2019-03-10T13:17:30.335Z,1.20
2019-03-10T13:19:58.270Z,1.12
2019-03-10T13:22:25.978Z,1.90
2019-03-10T13:24:53.769Z,1.40
2019-03-10T13:27:21.329Z,1.35
2019-03-10T13:29:49.298Z,1.98
2019-03-10T13:32:16.718Z,1.50
2019-03-10T13:34:44.163Z,1.85
2019-03-10T13:37:12.031Z,1.77
2019-03-10T13:39:39.456Z,2.17
2019-03-10T13:42:07.191Z,1.80
2019-03-10T13:44:40.838Z,1.70
2019-03-10T13:47:11.569Z,1.67
2019-03-10T13:49:39.737Z,2.05
2019-03-10T13:52:07.522Z,2.27
2019-03-10T13:54:35.387Z,1.80
2019-03-10T13:57:05.985Z,1.60
2019-03-10T13:59:33.870Z,1.67
2019-03-10T14:02:01.931Z,1.72
2019-03-10T14:04:30.112Z,2.17
2019-03-10T14:06:58.024Z,1.90
2019-03-10T14:09:25.870Z,2.15
2019-03-10T14:11:53.738Z,2.20
2019-03-10T14:14:21.319Z,2.20
2019-03-10T14:16:49.060Z,2.70
2019-03-10T14:19:16.519Z,4.10
2019-03-10T14:21:43.994Z,4.08
2019-03-10T14:24:11.590Z,3.22
2019-03-10T14:26:39.412Z,2.17
2019-03-10T14:29:07.181Z,1.55
2019-03-10T14:31:34.874Z,5.20
2019-03-10T14:34:02.636Z,4.90
2019-03-10T14:36:30.196Z,2.05
2019-03-10T14:38:58.537Z,2.20
2019-03-10T14:41:26.040Z,2.87
2019-03-10T14:43:53.471Z,2.25
2019-03-10T14:46:21.679Z,2.60
2019-03-10T14:48:49.396Z,1.55
2019-03-10T14:51:17.259Z,1.70
2019-03-10T14:53:45.671Z,1.30
2019-03-10T14:56:13.108Z,1.65
2019-03-10T14:58:41.040Z,1.70
2019-03-10T15:01:08.955Z,1.50
2019-03-10T15:03:36.499Z,1.35
2019-03-10T15:06:04.642Z,1.50
2019-03-10T15:08:32.348Z,1.30
2019-03-10T15:10:59.855Z,1.45
2019-03-10T15:13:27.776Z,1.60
2019-03-10T15:15:55.590Z,1.45
2019-03-10T15:18:23.086Z,1.40
2019-03-10T15:20:50.754Z,1.30
2019-03-10T15:23:18.227Z,1.15
2019-03-10T15:25:45.803Z,1.50
2019-03-10T15:28:18.458Z,1.20
2019-03-10T15:30:46.342Z,1.17
2019-03-10T15:33:14.199Z,1.37
2019-03-10T15:35:41.871Z,1.12
2019-03-10T15:38:09.573Z,1.02
2019-03-10T15:40:37.396Z,0.80
2019-03-10T15:43:05.184Z,1.32
2019-03-10T15:45:34.309Z,0.82
2019-03-10T15:48:02.100Z,1.47
2019-03-10T15:50:29.967Z,1.00
2019-03-10T15:52:57.479Z,1.40
2019-03-10T15:55:25.005Z,1.05
2019-03-10T15:57:55.266Z,1.22
2019-03-10T16:00:23.055Z,1.37
2019-03-10T16:02:51.443Z,0.90
2019-03-10T16:05:19.085Z,0.90
2019-03-10T16:07:46.617Z,1.10
2019-03-10T16:10:14.207Z,0.95
2019-03-10T16:12:41.974Z,1.15
2019-03-10T16:15:11.674Z,0.90
2019-03-10T16:17:39.480Z,0.85
2019-03-10T16:20:08.915Z,0.90
2019-03-10T16:22:36.528Z,0.90
2019-03-10T16:25:04.383Z,0.90
2019-03-10T16:27:31.910Z,0.70
2019-03-10T16:29:59.723Z,0.93
2019-03-10T16:32:27.345Z,0.98
2019-03-10T16:34:55.204Z,0.78
2019-03-10T16:37:23.053Z,0.98
2019-03-10T16:39:51.076Z,0.50
2019-03-10T16:42:18.563Z,0.90
2019-03-10T16:44:45.987Z,1.35
2019-03-10T16:47:13.352Z,0.45
2019-03-10T16:49:41.037Z,0.95
2019-03-10T16:52:08.555Z,0.80
2019-03-10T16:54:36.921Z,0.53
2019-03-10T16:57:04.433Z,2.17
2019-03-10T16:59:34.115Z,0.70
2019-03-10T17:02:01.453Z,2.37
2019-03-10T17:04:29.203Z,6.00
2019-03-10T17:06:56.761Z,3.15
2019-03-10T17:09:24.257Z,2.72
2019-03-10T17:11:53.951Z,2.05
2019-03-10T17:14:21.543Z,0.70
2019-03-10T17:16:54.164Z,0.80
2019-03-10T17:19:22.135Z,0.50
2019-03-10T17:21:49.571Z,0.80
2019-03-10T17:24:17.340Z,0.70
2019-03-10T17:26:44.795Z,0.50
2019-03-10T17:29:12.269Z,0.78
2019-03-10T17:31:39.735Z,0.57
2019-03-10T17:34:07.394Z,0.50
2019-03-10T17:36:34.787Z,0.78
2019-03-10T17:39:02.341Z,1.07
2019-03-10T17:41:29.942Z,0.65
2019-03-10T17:43:57.306Z,1.07
2019-03-10T17:46:25.533Z,0.85
2019-03-10T17:48:53.567Z,0.85
2019-03-10T17:51:21.184Z,0.90
2019-03-10T17:53:48.612Z,0.85
2019-03-10T17:56:22.379Z,0.70
2019-03-10T17:58:49.929Z,2.12
2019-03-10T18:01:17.712Z,0.80
2019-03-10T18:03:45.493Z,0.80
2019-03-10T18:06:12.892Z,0.70
2019-03-10T18:08:40.608Z,1.00
2019-03-10T18:11:08.375Z,1.17
2019-03-10T18:13:36.518Z,1.80
2019-03-10T18:16:13.329Z,0.90
2019-03-10T18:18:40.679Z,1.10
2019-03-10T18:21:08.178Z,1.22
2019-03-10T18:23:35.893Z,1.15
2019-03-10T18:26:03.644Z,0.90
2019-03-10T18:28:31.088Z,7.62
2019-03-10T18:30:59.376Z,13.03
2019-03-10T18:33:27.426Z,11.50
2019-03-10T18:35:55.127Z,2.67
2019-03-10T18:38:22.904Z,2.05
2019-03-10T18:40:50.433Z,0.40
2019-03-10T18:43:17.934Z,0.72
2019-03-10T18:45:45.585Z,0.70
2019-03-10T18:48:13.107Z,0.50
2019-03-10T18:50:40.856Z,0.65
2019-03-10T18:53:08.530Z,0.90
2019-03-10T18:55:35.982Z,0.50
2019-03-10T18:58:03.768Z,0.82
2019-03-10T19:00:31.156Z,0.50
2019-03-10T19:02:58.604Z,0.60
2019-03-10T19:05:26.300Z,0.75
2019-03-10T19:07:53.720Z,1.00
2019-03-10T19:10:21.353Z,1.00
2019-03-10T19:12:49.203Z,1.10
2019-03-10T19:15:17.550Z,1.40
2019-03-10T19:17:45.596Z,0.90
2019-03-10T19:20:13.060Z,1.20
2019-03-10T19:22:40.407Z,1.12
2019-03-10T19:25:08.848Z,0.70
2019-03-10T19:27:36.430Z,1.67
2019-03-10T19:30:04.665Z,2.20
2019-03-10T19:32:32.099Z,1.62
2019-03-10T19:34:59.830Z,1.42
2019-03-10T19:37:27.417Z,1.22
2019-03-10T19:39:54.853Z,0.70
2019-03-10T19:42:22.890Z,1.07
2019-03-10T19:44:50.833Z,0.90
2019-03-10T19:47:18.243Z,0.70
2019-03-10T19:49:46.225Z,0.62
2019-03-10T19:52:13.563Z,0.93
2019-03-10T19:54:41.178Z,0.70
2019-03-10T19:57:08.874Z,1.00
2019-03-10T19:59:36.647Z,1.15
2019-03-10T20:02:04.428Z,0.82
2019-03-10T20:04:32.439Z,0.70
2019-03-10T20:06:59.745Z,1.00
2019-03-10T20:09:27.412Z,1.00
2019-03-10T20:11:55.755Z,1.27
2019-03-10T20:14:23.278Z,1.20
2019-03-10T20:16:51.160Z,1.00
2019-03-10T20:19:18.696Z,1.50
2019-03-10T20:21:46.652Z,1.45
2019-03-10T20:24:14.133Z,1.10
2019-03-10T20:26:41.480Z,1.10
2019-03-10T20:29:09.142Z,1.25
2019-03-10T20:31:36.885Z,1.27
2019-03-10T20:34:04.771Z,1.02
2019-03-10T20:36:33.502Z,1.00
2019-03-10T20:39:00.865Z,1.20
2019-03-10T20:41:28.277Z,0.90
2019-03-10T20:43:56.116Z,0.90
2019-03-10T20:46:24.300Z,0.85
2019-03-10T20:48:51.927Z,2.40
2019-03-10T20:51:19.314Z,0.72
2019-03-10T20:53:46.855Z,0.80
2019-03-10T20:56:14.558Z,1.00
2019-03-10T20:58:41.877Z,1.07
2019-03-10T21:01:09.678Z,1.45
2019-03-10T21:03:37.280Z,0.93
2019-03-10T21:06:04.878Z,1.30
2019-03-10T21:08:32.610Z,0.90
2019-03-10T21:11:00.487Z,1.12
2019-03-10T21:13:28.205Z,1.37
2019-03-10T21:15:56.318Z,1.10
2019-03-10T21:18:23.801Z,1.57
2019-03-10T21:20:51.140Z,0.72
2019-03-10T21:23:18.880Z,1.20
2019-03-10T21:25:46.561Z,1.00
2019-03-10T21:28:14.553Z,1.10
2019-03-10T21:30:42.233Z,1.27
2019-03-10T21:33:09.670Z,1.20
2019-03-10T21:35:39.170Z,1.30
2019-03-10T21:38:07.018Z,1.20
2019-03-10T21:40:34.464Z,1.32
2019-03-10T21:43:02.345Z,1.15
2019-03-10T21:45:29.779Z,1.50
2019-03-10T21:47:57.211Z,1.30
2019-03-10T21:50:24.724Z,1.20
2019-03-10T21:52:52.107Z,1.45
2019-03-10T21:55:19.448Z,1.80
2019-03-10T21:57:47.147Z,1.50
2019-03-10T22:00:14.783Z,1.40
2019-03-10T22:02:50.891Z,1.47
2019-03-10T22:05:18.634Z,2.52
2019-03-10T22:07:46.132Z,1.60
2019-03-10T22:10:13.778Z,1.82
2019-03-10T22:12:41.514Z,1.60
2019-03-10T22:15:10.710Z,1.50
2019-03-10T22:17:38.234Z,1.00
2019-03-10T22:20:05.731Z,1.35
2019-03-10T22:22:35.780Z,1.72
2019-03-10T22:25:12.149Z,1.60
2019-03-10T22:27:32.191Z,1.85
2019-03-10T22:29:59.470Z,1.25
2019-03-10T22:32:27.093Z,1.80
2019-03-10T22:34:54.726Z,1.37
2019-03-10T22:37:22.734Z,1.15
2019-03-10T22:39:50.037Z,1.32
2019-03-10T22:42:17.416Z,1.92
2019-03-10T22:44:46.547Z,1.85
2019-03-10T22:47:14.279Z,1.50
2019-03-10T22:49:41.728Z,1.37
2019-03-10T22:52:09.146Z,1.40
2019-03-10T22:54:36.519Z,1.65
2019-03-10T22:57:04.542Z,1.60
2019-03-10T22:59:31.949Z,1.60
2019-03-10T23:01:59.847Z,1.82
2019-03-10T23:04:27.517Z,2.20
2019-03-10T23:06:55.217Z,2.02
2019-03-10T23:09:22.770Z,2.62
2019-03-10T23:11:50.195Z,1.95
2019-03-10T23:14:17.487Z,1.50
2019-03-10T23:16:45.086Z,1.60
2019-03-10T23:19:12.482Z,1.98
2019-03-10T23:21:39.925Z,1.40
2019-03-10T23:24:07.631Z,1.90
2019-03-10T23:26:34.965Z,2.42
2019-03-10T23:29:02.397Z,2.62
2019-03-10T23:31:29.930Z,1.95
2019-03-10T23:33:57.377Z,2.30
2019-03-10T23:36:24.743Z,1.42
2019-03-10T23:38:52.106Z,2.40
2019-03-10T23:41:19.735Z,1.55
2019-03-10T23:43:47.401Z,1.32
2019-03-10T23:46:15.016Z,1.95
2019-03-10T23:48:42.658Z,2.05
2019-03-10T23:51:09.996Z,1.90
2019-03-10T23:53:37.418Z,1.65
2019-03-10T23:56:04.884Z,2.52
2019-03-10T23:58:32.307Z,1.98
